Time;durP1;ratioP1;P1;durP2;ratioP2;P2;SDS_P1;SDS_P2;PMS_P1;PMS_P2;Temp;Humidity;BMP_temperature;BMP_pressure;BME280_temperature;BME280_humidity;BME280_pressure;Samples;Min_cycle;Max_cycle;Signal;HPM_P1;HPM_P2
2023/08/08 00:00:12;;;;;;;0.50;0.50;;;;;;;12.34;79.50;97037.84;29395;214;63005;-55
2023/08/08 00:00:43;;;;;;;0.50;0.50;;;;;;;12.35;79.85;97038.66;29394;283;64013;-55
2023/08/08 00:01:14;;;;;;;0.50;0.50;;;;;;;12.34;79.16;97037.06;29395;257;63005;-55
2023/08/08 00:01:46;;;;;;;0.50;0.50;;;;;;;12.34;79.19;97037.06;29395;228;63009;-55
2023/08/08 00:02:18;;;;;;;0.50;0.50;;;;;;;12.33;79.14;97030.00;29395;218;63004;-55
2023/08/08 00:02:53;;;;;;;0.50;0.50;;;;;;;12.33;79.38;97038.97;29395;211;63009;-55
2023/08/08 00:03:24;;;;;;;0.47;0.47;;;;;;;12.36;79.53;97034.84;29395;213;63004;-55
2023/08/08 00:03:55;;;;;;;0.50;0.50;;;;;;;12.37;79.64;97031.00;29395;259;63015;-55
2023/08/08 00:04:26;;;;;;;0.50;0.50;;;;;;;12.37;79.39;97037.25;29394;213;64008;-55
2023/08/08 00:04:57;;;;;;;0.45;0.45;;;;;;;12.38;79.53;97032.62;29395;326;63008;-55
2023/08/08 00:05:29;;;;;;;0.47;0.47;;;;;;;12.39;79.31;97040.50;29395;311;63004;-56
2023/08/08 00:06:00;;;;;;;0.50;0.50;;;;;;;12.40;79.37;97035.84;29395;306;63009;-59
2023/08/08 00:06:32;;;;;;;0.40;0.40;;;;;;;12.40;78.49;97033.94;29395;240;63005;-55
2023/08/08 00:07:06;;;;;;;0.50;0.50;;;;;;;12.40;78.09;97031.22;29395;222;63009;-59
2023/08/08 00:07:38;;;;;;;0.50;0.50;;;;;;;12.41;78.38;97032.03;29394;205;64005;-55
2023/08/08 00:08:09;;;;;;;0.40;0.40;;;;;;;12.47;79.11;97032.75;29395;224;63009;-58
2023/08/08 00:08:41;;;;;;;0.50;0.50;;;;;;;12.50;79.14;97038.38;29395;205;63005;-54
2023/08/08 00:09:16;;;;;;;0.40;0.40;;;;;;;12.51;78.97;97031.00;29394;213;64013;-55
2023/08/08 00:09:50;;;;;;;0.43;0.43;;;;;;;12.51;78.96;97033.72;29395;275;63004;-55
2023/08/08 00:10:21;;;;;;;0.50;0.50;;;;;;;12.52;78.83;97033.41;29395;243;63009;-55
2023/08/08 00:10:52;;;;;;;0.50;0.50;;;;;;;12.53;78.84;97040.47;29395;224;63010;-54
2023/08/08 00:11:24;;;;;;;0.50;0.50;;;;;;;12.61;78.40;97034.34;29394;276;64013;-55
2023/08/08 00:11:58;;;;;;;0.50;0.50;;;;;;;12.62;77.78;97033.22;29395;219;63004;-55
2023/08/08 00:12:29;;;;;;;0.50;0.50;;;;;;;12.61;77.80;97037.06;29395;229;63008;-55
2023/08/08 00:13:01;;;;;;;0.50;0.50;;;;;;;12.60;77.89;97040.91;29394;235;64009;-56
2023/08/08 00:13:33;;;;;;;0.50;0.50;;;;;;;12.62;78.54;97032.44;29395;203;63009;-56
2023/08/08 00:14:04;;;;;;;0.50;0.50;;;;;;;12.63;78.14;97040.28;29395;203;63018;-55
2023/08/08 00:14:36;;;;;;;0.50;0.50;;;;;;;12.62;77.35;97038.69;29395;197;63009;-54
2023/08/08 00:15:08;;;;;;;0.50;0.50;;;;;;;12.62;77.42;97032.44;29394;221;64009;-60
2023/08/08 00:15:40;;;;;;;0.50;0.50;;;;;;;12.65;78.60;97042.72;29394;222;64009;-55
2023/08/08 00:16:11;;;;;;;0.50;0.50;;;;;;;12.66;78.41;97034.25;29394;226;64009;-54
2023/08/08 00:16:44;;;;;;;0.50;0.50;;;;;;;12.67;78.47;97043.22;29395;208;63009;-55
2023/08/08 00:17:15;;;;;;;0.50;0.50;;;;;;;12.66;78.20;97034.25;29395;233;63004;-56
2023/08/08 00:17:47;;;;;;;0.50;0.50;;;;;;;12.67;78.09;97038.59;29395;210;63009;-56
2023/08/08 00:18:18;;;;;;;0.50;0.50;;;;;;;12.70;78.81;97037.19;29395;209;63004;-55
2023/08/08 00:18:50;;;;;;;0.50;0.50;;;;;;;12.72;78.29;97037.69;29395;253;63009;-56
2023/08/08 00:19:21;;;;;;;0.50;0.50;;;;;;;12.74;77.85;97035.47;29395;215;63004;-54
2023/08/08 00:19:52;;;;;;;0.50;0.50;;;;;;;12.73;77.89;97040.09;29394;233;64013;-55
2023/08/08 00:20:24;;;;;;;0.50;0.50;;;;;;;12.79;77.97;97037.28;29395;211;63005;-55
2023/08/08 00:20:55;;;;;;;0.50;0.50;;;;;;;12.81;77.44;97040.50;29395;204;63009;-59
2023/08/08 00:21:26;;;;;;;0.47;0.47;;;;;;;12.83;77.61;97041.78;29395;217;63005;-56
2023/08/08 00:21:57;;;;;;;0.50;0.50;;;;;;;12.85;77.38;97050.47;29395;247;63009;-58
2023/08/08 00:22:30;;;;;;;0.40;0.40;;;;;;;12.85;77.30;97042.28;29395;206;63005;-54
2023/08/08 00:23:01;;;;;;;0.50;0.50;;;;;;;12.87;77.71;97044.72;29395;224;63009;-54
2023/08/08 00:23:33;;;;;;;0.50;0.50;;;;;;;12.90;77.44;97044.09;29394;217;64009;-59
2023/08/08 00:24:05;;;;;;;0.50;0.50;;;;;;;12.92;77.50;97036.44;29395;204;63009;-55
2023/08/08 00:24:36;;;;;;;0.50;0.50;;;;;;;12.90;77.09;97041.38;29395;204;63004;-56
2023/08/08 00:25:08;;;;;;;0.50;0.50;;;;;;;12.95;76.60;97042.09;29395;305;63009;-55
2023/08/08 00:25:40;;;;;;;0.50;0.50;;;;;;;12.95;76.10;97044.00;29394;224;64009;-56
2023/08/08 00:26:12;;;;;;;0.40;0.40;;;;;;;12.93;76.08;97043.50;29394;196;64013;-55
2023/08/08 00:26:43;;;;;;;0.50;0.50;;;;;;;12.91;75.93;97045.72;29395;263;63004;-55
2023/08/08 00:27:15;;;;;;;0.50;0.50;;;;;;;12.93;76.96;97046.22;29395;212;63008;-57
2023/08/08 00:27:47;;;;;;;0.40;0.40;;;;;;;12.95;76.73;97042.09;29395;206;63015;-55
2023/08/08 00:28:18;;;;;;;0.50;0.50;;;;;;;12.94;76.67;97045.13;29395;203;63009;-54
2023/08/08 00:28:49;;;;;;;0.50;0.50;;;;;;;12.92;76.72;97044.63;29395;298;63005;-54
2023/08/08 00:29:21;;;;;;;0.40;0.40;;;;;;;12.93;76.45;97043.50;29395;227;63009;-54
2023/08/08 00:29:53;;;;;;;0.40;0.40;;;;;;;12.94;76.76;97045.94;29395;314;63000;-54
2023/08/08 00:30:25;;;;;;;0.50;0.50;;;;;;;12.95;76.87;97041.28;29395;202;63009;-55
2023/08/08 00:30:56;;;;;;;0.50;0.50;;;;;;;12.98;76.20;97040.69;29395;225;63005;-60
2023/08/08 00:31:27;;;;;;;0.50;0.50;;;;;;;13.00;76.53;97036.53;29394;202;64013;-55
2023/08/08 00:31:58;;;;;;;0.50;0.50;;;;;;;13.01;75.67;97038.16;29395;202;63004;-54
2023/08/08 00:32:30;;;;;;;0.40;0.40;;;;;;;13.00;75.66;97033.00;29395;260;63009;-56
2023/08/08 00:33:01;;;;;;;0.40;0.40;;;;;;;13.01;75.60;97034.63;29395;250;63004;-58
2023/08/08 00:33:32;;;;;;;0.50;0.50;;;;;;;12.98;75.22;97036.03;29395;259;63009;-54
2023/08/08 00:34:07;;;;;;;0.50;0.50;;;;;;;12.97;75.17;97039.06;29395;204;63004;-54
2023/08/08 00:34:39;;;;;;;0.50;0.50;;;;;;;12.94;76.34;97039.66;29395;210;63008;-60
2023/08/08 00:35:10;;;;;;;0.45;0.45;;;;;;;12.93;76.02;97040.78;29395;311;63004;-56
2023/08/08 00:35:45;;;;;;;0.50;0.50;;;;;;;12.95;76.76;97038.56;29395;209;63009;-55
2023/08/08 00:36:16;;;;;;;0.50;0.50;;;;;;;12.97;76.38;97041.78;29394;257;64009;-56
2023/08/08 00:36:49;;;;;;;0.50;0.50;;;;;;;12.98;76.47;97040.69;29395;243;63009;-54
2023/08/08 00:37:20;;;;;;;0.50;0.50;;;;;;;12.99;76.49;97034.13;29395;244;63005;-55
2023/08/08 00:37:51;;;;;;;0.50;0.50;;;;;;;12.98;76.47;97046.13;29395;336;63009;-55
2023/08/08 00:38:23;;;;;;;0.50;0.50;;;;;;;12.99;76.38;97039.56;29395;227;63005;-54
2023/08/08 00:38:54;;;;;;;0.50;0.50;;;;;;;12.99;76.44;97036.84;29394;204;64013;-56
2023/08/08 00:39:25;;;;;;;0.50;0.50;;;;;;;13.01;76.39;97040.06;29395;220;63008;-55
2023/08/08 00:39:57;;;;;;;0.50;0.50;;;;;;;13.00;76.28;97038.47;29395;209;63009;-55
2023/08/08 00:40:28;;;;;;;0.50;0.50;;;;;;;13.01;76.16;97034.63;29395;232;63004;-58
2023/08/08 00:40:59;;;;;;;0.40;0.40;;;;;;;13.03;76.78;97040.56;29395;251;63017;-55
2023/08/08 00:41:34;;;;;;;0.40;0.40;;;;;;;13.03;76.53;97037.84;29395;311;63004;-56
2023/08/08 00:42:06;;;;;;;0.50;0.50;;;;;;;13.08;76.32;97041.28;29394;198;64013;-56
2023/08/08 00:42:37;;;;;;;0.50;0.50;;;;;;;13.11;76.20;97039.06;29395;202;63014;-55
2023/08/08 00:43:08;;;;;;;0.50;0.50;;;;;;;13.12;76.04;97036.03;29395;315;63009;-55
2023/08/08 00:43:39;;;;;;;0.50;0.50;;;;;;;13.12;75.85;97041.47;29395;203;63005;-55
2023/08/08 00:44:11;;;;;;;0.50;0.50;;;;;;;13.09;75.95;97036.63;29395;210;63009;-54
2023/08/08 00:44:42;;;;;;;0.50;0.50;;;;;;;13.06;75.86;97035.31;29395;203;63005;-55
2023/08/08 00:45:13;;;;;;;0.40;0.40;;;;;;;13.05;76.30;97035.63;29395;202;63005;-55
2023/08/08 00:45:45;;;;;;;0.40;0.40;;;;;;;13.04;76.21;97034.03;29394;210;64009;-55
2023/08/08 00:46:23;;;;;;;0.50;0.50;;;;;;;13.01;76.52;97027.25;29395;211;63009;-55
2023/08/08 00:46:55;;;;;;;0.50;0.50;;;;;;;13.00;76.44;97031.09;29394;225;64009;-54
2023/08/08 00:47:27;;;;;;;0.50;0.50;;;;;;;13.00;76.29;97041.19;29395;208;63009;-54
2023/08/08 00:47:59;;;;;;;0.50;0.50;;;;;;;12.99;76.80;97031.41;29395;222;63004;-55
2023/08/08 00:48:31;;;;;;;0.50;0.50;;;;;;;12.97;76.61;97028.16;29395;217;63009;-55
2023/08/08 00:49:03;;;;;;;0.50;0.50;;;;;;;12.95;76.75;97030.41;29395;196;63004;-55
2023/08/08 00:49:37;;;;;;;0.50;0.50;;;;;;;12.92;76.67;97033.72;29395;309;63008;-54
2023/08/08 00:50:10;;;;;;;0.40;0.40;;;;;;;12.91;77.02;97032.09;29395;207;63004;-56
2023/08/08 00:50:44;;;;;;;0.50;0.50;;;;;;;12.89;77.17;97031.59;29395;235;63009;-54
2023/08/08 00:51:17;;;;;;;0.50;0.50;;;;;;;12.89;77.49;97023.44;29395;203;63010;-55
2023/08/08 00:51:50;;;;;;;0.50;0.50;;;;;;;12.87;77.34;97023.75;29395;246;63009;-54
2023/08/08 00:52:21;;;;;;;0.40;0.40;;;;;;;12.86;77.26;97032.22;29394;210;64020;-55
2023/08/08 00:52:53;;;;;;;0.43;0.43;;;;;;;12.85;77.46;97027.87;29395;197;63009;-55
2023/08/08 00:53:26;;;;;;;0.50;0.50;;;;;;;12.83;77.59;97032.81;29395;198;63005;-61
2023/08/08 00:53:58;;;;;;;0.50;0.50;;;;;;;12.82;77.79;97029.28;29395;238;63024;-54
2023/08/08 00:54:30;;;;;;;0.50;0.50;;;;;;;12.79;77.41;97026.38;29395;330;63000;-60
2023/08/08 00:55:03;;;;;;;0.50;0.50;;;;;;;12.79;77.72;97029.91;29395;248;63018;-60
2023/08/08 00:55:35;;;;;;;0.50;0.50;;;;;;;12.81;77.81;97029.63;29395;233;63004;-55
2023/08/08 00:56:06;;;;;;;0.50;0.50;;;;;;;12.81;78.08;97029.63;29395;217;63009;-56
2023/08/08 00:56:39;;;;;;;0.50;0.50;;;;;;;12.84;78.34;97028.97;29395;234;63004;-55
2023/08/08 00:57:11;;;;;;;0.50;0.50;;;;;;;12.84;77.63;97027.06;29395;225;63008;-55
2023/08/08 00:57:42;;;;;;;0.50;0.50;;;;;;;12.84;77.85;97031.72;29394;241;64008;-55
2023/08/08 00:58:15;;;;;;;0.40;0.40;;;;;;;12.85;77.84;97030.59;29395;220;63009;-54
2023/08/08 00:58:47;;;;;;;0.50;0.50;;;;;;;12.84;77.96;97028.97;29395;222;63005;-54
2023/08/08 00:59:19;;;;;;;0.50;0.50;;;;;;;12.83;78.12;97024.66;29395;213;63009;-54
2023/08/08 00:59:51;;;;;;;0.50;0.50;;;;;;;12.82;77.66;97023.06;29395;199;63008;-54
2023/08/08 01:00:22;;;;;;;0.50;0.50;;;;;;;12.83;77.82;97027.38;29395;199;63009;-55
2023/08/08 01:00:57;;;;;;;0.50;0.50;;;;;;;12.80;77.84;97028.81;29395;199;63005;-56
2023/08/08 01:01:28;;;;;;;0.50;0.50;;;;;;;12.81;77.97;97024.16;29395;209;63009;-54
2023/08/08 01:02:00;;;;;;;0.50;0.50;;;;;;;12.80;78.19;97022.56;29395;209;63005;-55
2023/08/08 01:02:32;;;;;;;0.50;0.50;;;;;;;12.79;78.00;97026.38;29395;212;63006;-55
2023/08/08 01:03:04;;;;;;;0.50;0.50;;;;;;;12.78;78.13;97019.34;29394;246;64009;-55
2023/08/08 01:03:35;;;;;;;0.43;0.43;;;;;;;12.77;78.46;97023.16;29395;215;63009;-55
2023/08/08 01:04:07;;;;;;;0.50;0.50;;;;;;;12.77;78.67;97020.44;29395;257;63004;-55
2023/08/08 01:04:39;;;;;;;0.50;0.50;;;;;;;12.75;78.03;97024.28;29395;251;63008;-55
2023/08/08 01:05:12;;;;;;;0.50;0.50;;;;;;;12.74;78.11;97025.38;29395;232;63010;-54
2023/08/08 01:05:51;;;;;;;0.50;0.50;;;;;;;12.73;78.25;97021.03;29395;265;63014;-55
2023/08/08 01:06:48;;;;;;;0.50;0.50;;;;;;;12.72;78.15;97016.72;29395;252;63012;-54
2023/08/08 01:07:48;;;;;;;0.50;0.50;;;;;;;12.73;78.20;97020.22;29395;208;63009;-62
2023/08/08 01:08:29;;;;;;;0.50;0.50;;;;;;;12.72;78.22;97019.44;29394;268;64013;-60
2023/08/08 01:09:08;;;;;;;0.50;0.50;;;;;;;12.75;78.78;97015.28;29395;234;63009;-56
2023/08/08 01:09:50;;;;;;;0.50;0.50;;;;;;;12.81;78.10;97021.44;29395;202;63009;-56
2023/08/08 01:10:31;;;;;;;0.50;0.50;;;;;;;12.87;78.10;97017.47;29395;250;63017;-55
2023/08/08 01:11:03;;;;;;;;;;;;;;;12.87;77.54;97022.94;29996;983;6004;-55
2023/08/08 01:11:36;;;;;;;0.50;0.50;;;;;;;12.88;77.54;97022.63;29422;202;63008;-55
2023/08/08 01:12:10;;;;;;;0.50;0.50;;;;;;;12.86;77.29;97015.88;29395;209;63004;-56
2023/08/08 01:13:02;;;;;;;0.50;0.50;;;;;;;12.85;77.66;97025.16;29395;268;63008;-55
2023/08/08 01:13:35;;;;;;;0.50;0.50;;;;;;;12.84;77.79;97023.53;29394;236;64009;-56
2023/08/08 01:14:09;;;;;;;0.50;0.50;;;;;;;12.85;77.75;97019.69;29395;205;63009;-55
2023/08/08 01:14:43;;;;;;;0.50;0.50;;;;;;;12.84;78.07;97023.53;29395;242;63005;-56
2023/08/08 01:15:16;;;;;;;0.50;0.50;;;;;;;12.84;78.10;97016.16;29394;202;64013;-55
2023/08/08 01:15:49;;;;;;;0.50;0.50;;;;;;;12.85;78.23;97019.69;29395;199;63005;-61
2023/08/08 01:16:22;;;;;;;0.50;0.50;;;;;;;12.85;78.28;97019.69;29395;218;63009;-55
2023/08/08 01:16:57;;;;;;;0.50;0.50;;;;;;;12.86;78.38;97021.31;29395;239;63013;-56
2023/08/08 01:17:29;;;;;;;0.50;0.50;;;;;;;12.85;78.13;97019.69;29395;243;63020;-55
2023/08/08 01:18:00;;;;;;;0.50;0.50;;;;;;;12.84;78.01;97018.09;29395;241;63004;-56
2023/08/08 01:18:32;;;;;;;0.50;0.50;;;;;;;12.87;77.78;97017.47;29395;215;63009;-62
2023/08/08 01:19:08;;;;;;;0.47;0.47;;;;;;;12.86;77.54;97015.88;29394;227;64008;-55
2023/08/08 01:19:40;;;;;;;0.50;0.50;;;;;;;12.84;77.68;97020.81;29395;278;63008;-56
2023/08/08 01:20:16;;;;;;;0.50;0.50;;;;;;;12.83;77.96;97024.66;29395;245;63005;-54
2023/08/08 01:20:50;;;;;;;0.50;0.50;;;;;;;12.82;77.91;97014.91;29395;214;63009;-55
2023/08/08 01:21:22;;;;;;;0.50;0.50;;;;;;;12.82;77.97;97020.34;29395;292;63019;-60
2023/08/08 01:21:57;;;;;;;0.50;0.50;;;;;;;12.81;78.12;97018.72;29395;204;63009;-55
2023/08/08 01:22:36;;;;;;;0.50;0.50;;;;;;;12.79;78.27;97015.50;29395;220;63005;-55
2023/08/08 01:23:24;;;;;;;0.50;0.50;;;;;;;12.79;78.56;97020.94;29395;216;63009;-56
2023/08/08 01:24:20;;;;;;;0.50;0.50;;;;;;;12.78;78.74;97022.06;29395;218;63004;-55
2023/08/08 01:25:03;;;;;;;0.50;0.50;;;;;;;12.78;78.58;97024.78;29394;240;64013;-55
2023/08/08 01:25:35;;;;;;;0.50;0.50;;;;;;;12.77;78.67;97023.16;29395;209;63004;-55
2023/08/08 01:26:07;;;;;;;0.50;0.50;;;;;;;12.75;78.59;97027.00;29395;215;63009;-60
2023/08/08 01:26:38;;;;;;;0.50;0.50;;;;;;;12.74;78.65;97014.50;29395;199;63004;-55
2023/08/08 01:27:11;;;;;;;0.50;0.50;;;;;;;12.75;79.10;97028.91;29395;220;63008;-55
2023/08/08 01:27:44;;;;;;;0.50;0.50;;;;;;;12.73;79.02;97023.75;29395;209;63006;-55
2023/08/08 01:28:16;;;;;;;0.50;0.50;;;;;;;12.72;78.84;97024.88;29395;223;63009;-55
2023/08/08 01:28:47;;;;;;;0.50;0.50;;;;;;;12.71;78.91;97020.53;29395;209;63010;-55
2023/08/08 01:29:18;;;;;;;0.43;0.43;;;;;;;12.73;79.66;97023.75;29395;203;63009;-62
2023/08/08 01:29:53;;;;;;;0.50;0.50;;;;;;;12.74;79.54;97025.38;29395;231;63008;-55
2023/08/08 01:30:26;;;;;;;0.50;0.50;;;;;;;12.75;79.08;97015.28;29394;202;64013;-55
2023/08/08 01:30:59;;;;;;;0.50;0.50;;;;;;;12.75;79.10;97021.56;29395;221;63005;-54
2023/08/08 01:31:30;;;;;;;0.50;0.50;;;;;;;12.74;79.24;97014.50;29395;207;63009;-60
2023/08/08 01:32:01;;;;;;;0.50;0.50;;;;;;;12.73;79.59;97015.59;29395;220;63004;-56
2023/08/08 01:32:32;;;;;;;0.50;0.50;;;;;;;12.74;79.89;97011.75;29395;228;63009;-55
2023/08/08 01:33:06;;;;;;;0.50;0.50;;;;;;;12.74;79.72;97014.50;29395;220;63004;-55
2023/08/08 01:33:38;;;;;;;0.50;0.50;;;;;;;12.74;79.63;97014.50;29395;211;63009;-55
2023/08/08 01:34:09;;;;;;;0.43;0.43;;;;;;;12.72;79.29;97011.25;29395;216;63004;-61
2023/08/08 01:34:41;;;;;;;0.50;0.50;;;;;;;12.70;79.67;97016.19;29395;251;63008;-56
2023/08/08 01:35:12;;;;;;;0.50;0.50;;;;;;;12.71;79.42;97014.28;29395;213;63005;-55
2023/08/08 01:35:53;;;;;;;0.50;0.50;;;;;;;12.70;80.07;97008.03;29394;253;64014;-60
2023/08/08 01:36:46;;;;;;;0.50;0.50;;;;;;;12.72;79.99;97013.97;29417;228;63008;-55
2023/08/08 01:37:28;;;;;;;0.50;0.50;;;;;;;12.77;80.49;97002.19;29395;278;63009;-60
2023/08/08 01:38:11;;;;;;;0.50;0.50;;;;;;;12.77;79.37;97009.53;29395;247;63005;-55
2023/08/08 01:38:47;;;;;;;0.45;0.45;;;;;;;12.75;79.48;97007.94;29395;244;63009;-60
2023/08/08 01:39:26;;;;;;;0.40;0.40;;;;;;;12.75;79.66;97005.22;29395;210;63004;-55
2023/08/08 01:39:59;;;;;;;0.50;0.50;;;;;;;12.74;79.47;97000.06;29395;264;63009;-54
2023/08/08 01:40:32;;;;;;;0.50;0.50;;;;;;;12.72;79.35;97000.38;29395;226;63004;-54
2023/08/08 01:41:06;;;;;;;0.40;0.40;;;;;;;12.72;79.57;97000.38;29394;241;64013;-54
2023/08/08 01:41:38;;;;;;;0.43;0.43;;;;;;;12.72;79.41;97005.81;29395;263;63004;-54
2023/08/08 01:42:12;;;;;;;0.50;0.50;;;;;;;12.73;79.67;97001.97;29395;198;63018;-54
2023/08/08 01:42:46;;;;;;;0.50;0.50;;;;;;;12.73;79.32;97007.44;29395;257;63005;-54
2023/08/08 01:43:19;;;;;;;0.50;0.50;;;;;;;12.77;79.95;97002.19;29395;252;63009;-59
2023/08/08 01:43:51;;;;;;;0.50;0.50;;;;;;;12.78;79.24;97003.81;29395;230;63005;-54
2023/08/08 01:44:23;;;;;;;0.50;0.50;;;;;;;12.77;79.39;96998.66;29395;204;63009;-56
2023/08/08 01:44:56;;;;;;;0.50;0.50;;;;;;;12.75;79.38;96999.75;29395;234;63005;-55
2023/08/08 01:45:28;;;;;;;0.50;0.50;;;;;;;12.75;79.54;97002.50;29395;202;63009;-55
2023/08/08 01:46:00;;;;;;;0.50;0.50;;;;;;;12.74;79.33;96998.16;29395;259;63005;-55
2023/08/08 01:46:34;;;;;;;0.50;0.50;;;;;;;12.74;79.57;97002.78;29394;212;64013;-55
2023/08/08 01:47:06;;;;;;;0.50;0.50;;;;;;;12.72;79.70;96999.56;29395;205;63004;-55
2023/08/08 01:47:38;;;;;;;0.40;0.40;;;;;;;12.72;79.83;97003.09;29395;207;63009;-55
2023/08/08 01:48:11;;;;;;;0.50;0.50;;;;;;;12.73;79.65;97004.72;29395;261;63004;-55
2023/08/08 01:48:46;;;;;;;0.40;0.40;;;;;;;12.73;79.79;96996.53;29395;212;63009;-55
2023/08/08 01:49:18;;;;;;;0.50;0.50;;;;;;;12.73;79.58;96996.53;29395;255;63004;-54
2023/08/08 01:49:49;;;;;;;0.50;0.50;;;;;;;12.73;79.65;97001.19;29395;343;63008;-55
2023/08/08 01:50:21;;;;;;;0.40;0.40;;;;;;;12.72;79.70;96997.66;29395;303;63005;-54
2023/08/08 01:50:53;;;;;;;0.40;0.40;;;;;;;12.72;79.92;97000.38;29395;214;63009;-59
2023/08/08 01:51:28;;;;;;;0.50;0.50;;;;;;;12.73;79.99;97001.19;29395;277;63010;-54
2023/08/08 01:51:59;;;;;;;0.50;0.50;;;;;;;12.74;80.62;96998.16;29394;335;64013;-55
2023/08/08 01:52:34;;;;;;;0.50;0.50;;;;;;;12.77;80.71;97006.81;29395;219;63005;-55
2023/08/08 01:53:05;;;;;;;0.43;0.43;;;;;;;12.79;80.75;97001.88;29395;207;63009;-60
2023/08/08 01:53:36;;;;;;;0.50;0.50;;;;;;;12.79;80.67;97004.59;29395;200;63005;-55
2023/08/08 01:54:09;;;;;;;0.50;0.50;;;;;;;12.78;80.42;96997.56;29395;224;63018;-56
2023/08/08 01:54:42;;;;;;;0.50;0.50;;;;;;;12.78;80.55;97003.00;29395;213;63004;-55
2023/08/08 01:55:17;;;;;;;0.40;0.40;;;;;;;12.75;80.48;96994.31;29395;204;63009;-62
2023/08/08 01:55:52;;;;;;;0.50;0.50;;;;;;;12.75;80.47;96998.97;29395;310;63004;-55
2023/08/08 01:56:23;;;;;;;0.50;0.50;;;;;;;12.77;80.51;97001.38;29395;310;63009;-55
2023/08/08 01:56:54;;;;;;;0.50;0.50;;;;;;;12.75;80.30;96994.31;29395;223;63004;-60
2023/08/08 01:57:26;;;;;;;0.40;0.40;;;;;;;12.75;80.20;96994.31;29394;290;64013;-61
2023/08/08 01:57:57;;;;;;;0.50;0.50;;;;;;;12.75;80.41;96993.50;29395;228;63011;-56
2023/08/08 01:58:28;;;;;;;0.50;0.50;;;;;;;12.78;80.65;96998.34;29395;208;63009;-55
2023/08/08 01:59:00;;;;;;;0.50;0.50;;;;;;;12.79;80.25;97010.06;29395;230;63005;-55
2023/08/08 01:59:31;;;;;;;0.50;0.50;;;;;;;12.79;80.45;96993.72;29395;230;63009;-55
2023/08/08 02:00:04;;;;;;;0.50;0.50;;;;;;;12.77;80.06;96999.47;29395;242;63005;-55
2023/08/08 02:00:36;;;;;;;0.43;0.43;;;;;;;12.78;80.27;96998.34;29394;203;64013;-55
2023/08/08 02:01:07;;;;;;;0.50;0.50;;;;;;;12.81;80.76;97005.13;29395;199;63005;-55
2023/08/08 02:01:39;;;;;;;0.50;0.50;;;;;;;12.81;81.17;96996.94;29395;219;63009;-61
2023/08/08 02:02:12;;;;;;;0.45;0.45;;;;;;;12.82;80.79;97009.44;29394;208;64009;-55
2023/08/08 02:02:44;;;;;;;0.50;0.50;;;;;;;12.87;80.86;97003.88;29395;198;63009;-55
2023/08/08 02:03:15;;;;;;;0.50;0.50;;;;;;;12.89;79.48;97004.38;29395;304;63004;-59
2023/08/08 02:03:46;;;;;;;0.50;0.50;;;;;;;12.88;79.16;97005.47;29396;353;63009;-60
2023/08/08 02:04:17;;;;;;;0.50;0.50;;;;;;;12.87;78.96;97003.88;29396;307;63004;-56
2023/08/08 02:04:48;;;;;;;0.45;0.45;;;;;;;12.87;79.67;97006.59;29396;238;63008;-61
2023/08/08 02:05:20;;;;;;;0.45;0.45;;;;;;;12.87;79.62;97001.94;29396;246;63005;-54
2023/08/08 02:05:53;;;;;;;0.50;0.50;;;;;;;12.88;79.72;97005.47;29396;333;63021;-54
2023/08/08 02:06:24;;;;;;;0.50;0.50;;;;;;;12.86;80.24;97004.97;29396;318;63005;-55
2023/08/08 02:06:55;;;;;;;0.47;0.47;;;;;;;12.86;80.40;96994.09;29396;359;63009;-55
2023/08/08 02:07:27;;;;;;;0.50;0.50;;;;;;;12.84;79.94;96991.66;29395;198;64009;-55
2023/08/08 02:07:59;;;;;;;0.50;0.50;;;;;;;12.83;79.69;97002.88;29396;202;63009;-54
2023/08/08 02:08:30;;;;;;;0.50;0.50;;;;;;;12.82;79.29;96999.34;29396;282;63005;-55
2023/08/08 02:09:01;;;;;;;0.50;0.50;;;;;;;12.81;80.05;97003.19;29396;301;63009;-54
2023/08/08 02:09:32;;;;;;;0.50;0.50;;;;;;;12.82;79.38;96998.56;29396;254;63004;-61
2023/08/08 02:10:04;;;;;;;0.50;0.50;;;;;;;12.82;79.84;97004.00;29396;210;63009;-61
2023/08/08 02:10:36;;;;;;;0.50;0.50;;;;;;;12.82;79.67;96998.56;29396;372;63004;-54
2023/08/08 02:11:07;;;;;;;0.50;0.50;;;;;;;12.81;80.14;97003.19;29396;214;63009;-54
2023/08/08 02:11:38;;;;;;;0.50;0.50;;;;;;;12.83;80.39;97000.94;29396;220;63004;-55
2023/08/08 02:12:10;;;;;;;0.50;0.50;;;;;;;12.91;80.53;96985.81;29396;266;63008;-54
2023/08/08 02:12:42;;;;;;;0.50;0.50;;;;;;;12.94;80.18;97002.34;29395;224;64009;-54
2023/08/08 02:13:13;;;;;;;0.40;0.40;;;;;;;12.95;80.08;97000.44;29396;229;63009;-59
2023/08/08 02:13:44;;;;;;;0.40;0.40;;;;;;;12.94;79.80;96996.09;29396;220;63005;-62
2023/08/08 02:14:15;;;;;;;0.50;0.50;;;;;;;12.94;79.97;96998.81;29396;310;63009;-54
2023/08/08 02:14:46;;;;;;;0.47;0.47;;;;;;;12.92;79.85;96998.31;29396;276;63005;-56
2023/08/08 02:15:18;;;;;;;0.50;0.50;;;;;;;12.90;79.72;96993.19;29396;224;63009;-55
2023/08/08 02:15:49;;;;;;;0.40;0.40;;;;;;;12.89;79.81;96996.19;29396;271;63005;-55
2023/08/08 02:16:20;;;;;;;0.40;0.40;;;;;;;12.87;79.94;96990.25;29396;221;63009;-55
2023/08/08 02:16:51;;;;;;;0.50;0.50;;;;;;;12.86;79.79;96999.53;29396;197;63004;-56
2023/08/08 02:17:23;;;;;;;0.50;0.50;;;;;;;12.86;80.18;96994.88;29396;224;63009;-61
2023/08/08 02:17:55;;;;;;;0.40;0.40;;;;;;;12.87;80.42;96990.25;29395;322;64009;-55
2023/08/08 02:18:27;;;;;;;0.50;0.50;;;;;;;12.89;80.74;96988.03;29396;212;63008;-61
2023/08/08 02:18:59;;;;;;;0.40;0.40;;;;;;;12.91;80.04;96985.81;29396;316;63004;-61
2023/08/08 02:19:30;;;;;;;0.50;0.50;;;;;;;12.90;80.05;96984.19;29396;218;63008;-55
2023/08/08 02:20:03;;;;;;;0.40;0.40;;;;;;;12.89;79.71;96993.47;29396;233;63004;-62
2023/08/08 02:20:34;;;;;;;0.50;0.50;;;;;;;12.86;79.73;96989.44;29395;255;64014;-55
2023/08/08 02:21:07;;;;;;;0.50;0.50;;;;;;;12.86;79.52;96988.63;29396;297;63005;-55
2023/08/08 02:21:38;;;;;;;0.50;0.50;;;;;;;12.86;79.98;96988.63;29396;215;63009;-55
2023/08/08 02:22:10;;;;;;;0.50;0.50;;;;;;;12.87;80.36;96990.25;29396;253;63005;-55
2023/08/08 02:22:41;;;;;;;0.50;0.50;;;;;;;12.87;79.99;96984.81;29396;202;63009;-56
2023/08/08 02:23:12;;;;;;;0.50;0.50;;;;;;;12.89;80.04;96982.59;29396;208;63005;-55
2023/08/08 02:23:43;;;;;;;0.50;0.50;;;;;;;12.91;79.90;96985.81;29396;325;63009;-55
2023/08/08 02:24:14;;;;;;;0.43;0.43;;;;;;;12.90;79.72;96984.19;29396;221;63004;-56
2023/08/08 02:24:46;;;;;;;0.50;0.50;;;;;;;12.95;79.88;96986.81;29396;266;63009;-55
2023/08/08 02:25:17;;;;;;;0.40;0.40;;;;;;;12.97;79.74;96979.16;29396;340;63004;-55
2023/08/08 02:25:49;;;;;;;0.40;0.40;;;;;;;12.96;78.96;96982.97;29395;324;64013;-55
2023/08/08 02:26:20;;;;;;;0.50;0.50;;;;;;;12.94;78.87;96979.75;29396;227;63004;-55
2023/08/08 02:26:51;;;;;;;0.50;0.50;;;;;;;12.92;79.01;96984.69;29396;273;63025;-55
2023/08/08 02:27:23;;;;;;;0.45;0.45;;;;;;;12.89;79.24;96980.66;29396;227;63005;-55
2023/08/08 02:27:54;;;;;;;0.50;0.50;;;;;;;12.90;79.98;96992.38;29396;276;63009;-56
2023/08/08 02:28:26;;;;;;;0.50;0.50;;;;;;;12.95;79.29;96986.81;29396;225;63005;-55
2023/08/08 02:28:57;;;;;;;0.50;0.50;;;;;;;12.96;79.61;96980.25;29396;208;63009;-61
2023/08/08 02:29:28;;;;;;;0.40;0.40;;;;;;;12.94;78.73;96987.94;29396;218;63008;-55
2023/08/08 02:30:00;;;;;;;0.40;0.40;;;;;;;12.91;78.82;96983.09;29396;220;63009;-60
2023/08/08 02:30:32;;;;;;;0.50;0.50;;;;;;;12.89;79.38;96982.59;29396;198;63005;-55
2023/08/08 02:31:03;;;;;;;0.40;0.40;;;;;;;12.90;79.38;96985.00;29395;233;64013;-54
2023/08/08 02:31:36;;;;;;;0.40;0.40;;;;;;;12.91;79.40;96985.81;29396;212;63004;-55
2023/08/08 02:32:08;;;;;;;0.50;0.50;;;;;;;12.93;79.09;96983.59;29396;205;63012;-55
2023/08/08 02:32:39;;;;;;;0.50;0.50;;;;;;;12.92;78.97;96984.69;29396;230;63004;-54
2023/08/08 02:33:10;;;;;;;0.50;0.50;;;;;;;12.90;79.02;96984.19;29396;255;63009;-55
2023/08/08 02:33:41;;;;;;;0.40;0.40;;;;;;;12.93;79.35;96989.03;29396;209;63004;-59
2023/08/08 02:34:12;;;;;;;0.40;0.40;;;;;;;12.91;78.50;96985.81;29396;208;63008;-55
2023/08/08 02:34:47;;;;;;;0.50;0.50;;;;;;;12.90;78.58;96978.75;29396;219;63005;-55
2023/08/08 02:35:19;;;;;;;0.50;0.50;;;;;;;12.89;79.29;96982.59;29396;207;63009;-56
2023/08/08 02:35:50;;;;;;;0.50;0.50;;;;;;;12.89;79.35;96979.88;29396;207;63005;-54
2023/08/08 02:36:22;;;;;;;0.50;0.50;;;;;;;12.86;78.98;96988.63;29395;210;64013;-55